createdAt,value
2022-10-19T00:01:13.334Z,96945.23
2022-10-19T00:03:42.317Z,96944.64
2022-10-19T00:06:16.426Z,96947.57
2022-10-19T00:08:44.541Z,96944.07
2022-10-19T00:11:12.760Z,96946.63
2022-10-19T00:13:40.824Z,96949.30
2022-10-19T00:16:12.150Z,96941.39
2022-10-19T00:18:41.121Z,96940.40
2022-10-19T00:21:10.684Z,96939.33
2022-10-19T00:23:38.626Z,96940.66
2022-10-19T00:26:07.182Z,96939.33
2022-10-19T00:28:35.302Z,96940.41
2022-10-19T00:31:06.305Z,96929.86
2022-10-19T00:33:34.523Z,96926.42
2022-10-19T00:36:02.210Z,96925.91
2022-10-19T00:38:29.912Z,96924.38
2022-10-19T00:40:57.478Z,96927.27
2022-10-19T00:43:30.117Z,96922.38
2022-10-19T00:45:57.796Z,96915.17
2022-10-19T00:48:30.257Z,96912.84
2022-10-19T00:51:00.240Z,96911.88
2022-10-19T00:53:31.041Z,96913.97
2022-10-19T00:56:03.307Z,96910.74
2022-10-19T00:58:30.886Z,96904.20
2022-10-19T01:01:03.091Z,96902.29
2022-10-19T01:03:30.892Z,96897.89
2022-10-19T01:06:00.165Z,96899.64
2022-10-19T01:08:28.318Z,96900.09
2022-10-19T01:11:19.399Z,96901.50
2022-10-19T01:14:02.505Z,96901.59
2022-10-19T01:16:58.729Z,96894.48
2022-10-19T01:19:54.339Z,96892.98
2022-10-19T01:22:59.066Z,96885.13
2022-10-19T01:25:47.737Z,96882.27
2022-10-19T01:28:40.244Z,96882.60
2022-10-19T01:31:29.612Z,96883.34
2022-10-19T01:34:10.747Z,96880.83
2022-10-19T01:37:02.411Z,96879.02
2022-10-19T01:39:49.792Z,96881.93
2022-10-19T01:42:30.425Z,96874.70
2022-10-19T01:45:07.035Z,96870.90
2022-10-19T01:47:41.295Z,96875.98
2022-10-19T01:50:17.957Z,96874.13
2022-10-19T01:52:46.548Z,96866.81
2022-10-19T01:55:16.141Z,96867.59
2022-10-19T01:57:48.164Z,96865.17
2022-10-19T02:00:17.219Z,96854.19
2022-10-19T02:02:48.468Z,96854.06
2022-10-19T02:05:20.212Z,96847.46
2022-10-19T02:07:55.157Z,96848.46
2022-10-19T02:10:25.083Z,96852.09
2022-10-19T02:12:55.841Z,96848.89
2022-10-19T02:15:27.704Z,96841.48
2022-10-19T02:18:03.297Z,96838.94
2022-10-19T02:20:31.180Z,96841.54
2022-10-19T02:22:58.751Z,96848.84
2022-10-19T02:25:26.842Z,96855.63
2022-10-19T02:27:54.559Z,96858.42
2022-10-19T02:30:22.376Z,96861.63
2022-10-19T02:32:51.147Z,96861.56
2022-10-19T02:35:19.118Z,96865.89
2022-10-19T02:37:46.676Z,96868.50
2022-10-19T02:40:14.712Z,96865.27
2022-10-19T02:42:50.645Z,96861.04
2022-10-19T02:45:23.686Z,96858.09
2022-10-19T02:47:57.421Z,96859.22
2022-10-19T02:50:25.495Z,96866.02
2022-10-19T02:52:53.151Z,96862.57
2022-10-19T02:55:20.860Z,96870.54
2022-10-19T02:57:48.441Z,96869.81
2022-10-19T03:00:16.271Z,96864.32
2022-10-19T03:02:44.179Z,96861.29
2022-10-19T03:05:11.850Z,96862.61
2022-10-19T03:07:39.498Z,96859.80
2022-10-19T03:10:07.674Z,96862.11
2022-10-19T03:12:35.241Z,96862.27
2022-10-19T03:15:03.277Z,96865.26
2022-10-19T03:17:31.226Z,96864.00
2022-10-19T03:19:59.138Z,96863.20
2022-10-19T03:22:26.761Z,96865.42
2022-10-19T03:24:54.315Z,96868.14
2022-10-19T03:27:21.919Z,96864.20
2022-10-19T03:29:50.183Z,96855.75
2022-10-19T03:32:17.872Z,96852.30
2022-10-19T03:34:45.520Z,96849.45
2022-10-19T03:37:15.061Z,96850.20
2022-10-19T03:39:43.015Z,96851.54
2022-10-19T03:42:10.626Z,96846.58
2022-10-19T03:44:38.219Z,96838.47
2022-10-19T03:47:05.828Z,96837.68
2022-10-19T03:49:34.675Z,96837.62
2022-10-19T03:52:04.655Z,96839.19
2022-10-19T03:54:32.399Z,96844.64
2022-10-19T03:56:59.992Z,96844.27
2022-10-19T03:59:27.765Z,96839.70
2022-10-19T04:01:55.467Z,96838.98
2022-10-19T04:04:23.159Z,96834.81
2022-10-19T04:06:53.093Z,96836.38
2022-10-19T04:09:22.376Z,96837.58
2022-10-19T04:11:50.379Z,96837.62
2022-10-19T04:14:32.914Z,96828.78
2022-10-19T04:17:07.134Z,96829.45
2022-10-19T04:19:34.926Z,96819.13
2022-10-19T04:22:03.300Z,96819.44
2022-10-19T04:24:30.953Z,96818.48
2022-10-19T04:26:58.535Z,96815.84
2022-10-19T04:29:29.876Z,96807.36
2022-10-19T04:31:57.955Z,96800.42
2022-10-19T04:34:25.574Z,96799.08
2022-10-19T04:36:53.886Z,96794.89
2022-10-19T04:39:21.655Z,96792.66
2022-10-19T04:41:49.304Z,96795.08
2022-10-19T04:44:17.024Z,96793.77
2022-10-19T04:46:44.667Z,96795.48
2022-10-19T04:49:15.204Z,96797.80
2022-10-19T04:51:45.694Z,96793.80
2022-10-19T04:54:13.453Z,96795.91
2022-10-19T04:56:41.213Z,96798.73
2022-10-19T04:59:10.048Z,96800.05
2022-10-19T05:01:38.189Z,96801.39
2022-10-19T05:04:05.743Z,96798.98
2022-10-19T05:06:35.814Z,96800.80
2022-10-19T05:09:03.796Z,96795.77
2022-10-19T05:11:31.443Z,96793.65
2022-10-19T05:14:01.385Z,96795.10
2022-10-19T05:16:29.005Z,96792.21
2022-10-19T05:18:58.599Z,96787.77
2022-10-19T05:21:31.107Z,96793.94
2022-10-19T05:24:02.574Z,96801.78
2022-10-19T05:26:32.568Z,96806.30
2022-10-19T05:29:02.624Z,96796.10
2022-10-19T05:31:33.129Z,96800.27
2022-10-19T05:34:04.246Z,96796.15
2022-10-19T05:36:40.081Z,96792.55
2022-10-19T05:39:13.165Z,96792.77
2022-10-19T05:41:43.884Z,96792.79
2022-10-19T05:44:15.951Z,96795.56
2022-10-19T05:46:47.067Z,96791.41
2022-10-19T05:49:16.854Z,96797.67
2022-10-19T05:51:47.653Z,96800.27
2022-10-19T05:54:21.023Z,96804.85
2022-10-19T05:56:57.323Z,96810.14
2022-10-19T05:59:31.750Z,96802.20
2022-10-19T06:02:10.903Z,96799.50
2022-10-19T06:09:52.516Z,96809.12
2022-10-19T06:12:11.952Z,96801.76
2022-10-19T06:13:15.292Z,96809.10
2022-10-19T06:16:42.015Z,96805.85
2022-10-19T06:19:55.140Z,96804.48
2022-10-19T06:49:01.594Z,96808.00
2022-10-19T06:51:34.721Z,96814.52
2022-10-19T06:54:08.582Z,96811.56
2022-10-19T06:56:43.763Z,96809.16
2022-10-19T06:59:23.076Z,96808.49
2022-10-19T07:01:59.417Z,96802.99
2022-10-19T07:17:00.859Z,96804.34
2022-10-19T07:38:46.615Z,96794.02
2022-10-19T07:45:09.790Z,96791.27
2022-10-19T07:48:49.757Z,96793.47
2022-10-19T08:56:49.245Z,96752.62
2022-10-19T09:00:26.858Z,96747.77
2022-10-19T09:08:57.860Z,96755.09
2022-10-19T09:19:05.437Z,96745.49
2022-10-19T09:27:06.657Z,96745.64
2022-10-19T09:30:23.115Z,96747.26
2022-10-19T09:33:03.629Z,96748.58
2022-10-19T09:35:46.383Z,96753.37
2022-10-19T09:38:39.649Z,96754.58
2022-10-19T09:41:43.018Z,96753.50
2022-10-19T09:44:39.500Z,96749.81
2022-10-19T09:47:49.165Z,96749.09
2022-10-19T09:51:19.027Z,96746.13
2022-10-19T09:53:59.247Z,96741.67
2022-10-19T09:56:43.286Z,96738.90
2022-10-19T09:59:25.565Z,96737.02
2022-10-19T10:02:35.978Z,96737.33
2022-10-19T10:22:00.054Z,96730.88
2022-10-19T10:24:54.925Z,96729.14
2022-10-19T10:27:38.523Z,96727.59
2022-10-19T10:30:09.214Z,96721.59
2022-10-19T10:32:52.963Z,96715.48
2022-10-19T10:35:34.104Z,96709.95
2022-10-19T10:38:19.402Z,96710.19
2022-10-19T10:45:00.691Z,96710.73
2022-10-19T10:47:38.974Z,96705.67
2022-10-19T10:50:21.042Z,96701.69
2022-10-19T10:53:28.972Z,96697.08
2022-10-19T10:56:00.274Z,96699.92
2022-10-19T10:58:50.742Z,96699.68
2022-10-19T11:02:19.494Z,96701.53
2022-10-19T12:44:37.771Z,96613.30
2022-10-19T12:47:35.580Z,96618.35
2022-10-19T12:50:15.639Z,96615.48
2022-10-19T12:53:27.885Z,96613.79
2022-10-19T13:01:52.588Z,96607.27
2022-10-19T13:04:34.088Z,96608.70
2022-10-19T13:07:09.965Z,96612.92
2022-10-19T13:09:45.994Z,96615.70
2022-10-19T13:13:14.278Z,96615.88
2022-10-19T13:15:50.807Z,96619.54
2022-10-19T13:18:59.413Z,96615.10
2022-10-19T13:21:44.491Z,96614.59
2022-10-19T13:24:30.751Z,96623.77
2022-10-19T13:27:26.222Z,96626.65
2022-10-19T13:29:57.441Z,96627.36
2022-10-19T13:32:46.482Z,96631.28
2022-10-19T13:35:53.940Z,96628.77
2022-10-19T13:39:16.310Z,96621.90
2022-10-19T13:42:37.253Z,96625.34
2022-10-19T13:45:37.277Z,96624.10
2022-10-19T13:48:48.163Z,96630.84
2022-10-19T13:51:45.974Z,96633.79
2022-10-19T13:54:46.947Z,96633.52
2022-10-19T13:57:54.161Z,96630.13
2022-10-19T14:00:25.671Z,96633.01
2022-10-19T14:03:31.847Z,96634.54
2022-10-19T14:06:16.750Z,96632.19
2022-10-19T14:09:09.612Z,96637.38
2022-10-19T14:11:56.160Z,96643.19
2022-10-19T14:14:24.306Z,96644.96
2022-10-19T14:16:59.755Z,96656.26
2022-10-19T14:19:33.396Z,96652.23
2022-10-19T14:22:16.719Z,96655.27
2022-10-19T14:24:43.321Z,96662.39
2022-10-19T14:27:37.201Z,96660.47
2022-10-19T14:30:24.325Z,96659.93
2022-10-19T14:32:56.803Z,96661.55
2022-10-19T14:35:32.354Z,96655.17
2022-10-19T14:38:08.599Z,96650.14
2022-10-19T14:40:40.250Z,96644.33
2022-10-19T14:43:26.448Z,96645.86
2022-10-19T14:46:09.940Z,96644.55
2022-10-19T14:48:44.811Z,96645.86
2022-10-19T14:51:23.785Z,96644.27
2022-10-19T14:53:56.266Z,96638.23
2022-10-19T14:56:33.862Z,96635.70
2022-10-19T14:59:10.915Z,96633.62
2022-10-19T15:01:37.551Z,96628.64
2022-10-19T15:04:04.270Z,96636.06
2022-10-19T15:06:39.708Z,96635.48
2022-10-19T15:09:12.089Z,96632.59
2022-10-19T15:11:49.431Z,96630.33
2022-10-19T15:14:22.745Z,96629.34
2022-10-19T15:16:53.546Z,96631.75
2022-10-19T15:19:27.572Z,96629.83
2022-10-19T15:22:12.112Z,96628.23
2022-10-19T15:24:40.029Z,96629.86
2022-10-19T15:27:10.241Z,96631.06
2022-10-19T15:29:36.993Z,96628.98
2022-10-19T15:32:21.839Z,96631.52
2022-10-19T15:34:54.188Z,96630.11
2022-10-19T15:37:23.520Z,96626.27
2022-10-19T15:39:52.235Z,96629.58
2022-10-19T15:42:40.348Z,96626.16
2022-10-19T15:45:27.387Z,96632.48
2022-10-19T15:48:15.126Z,96634.11
2022-10-19T15:50:47.723Z,96634.73
2022-10-19T15:53:15.045Z,96639.88
2022-10-19T15:55:41.532Z,96646.96
2022-10-19T15:58:09.971Z,96648.83
2022-10-19T16:00:36.449Z,96647.04
2022-10-19T16:03:04.060Z,96652.83
2022-10-19T16:05:35.053Z,96649.67
2022-10-19T16:08:01.520Z,96654.61
2022-10-19T16:10:28.561Z,96656.23
2022-10-19T16:12:54.792Z,96656.48
2022-10-19T16:15:22.582Z,96659.04
2022-10-19T16:17:52.340Z,96661.38
2022-10-19T16:20:19.408Z,96664.02
2022-10-19T16:22:47.085Z,96669.50
2022-10-19T16:25:13.831Z,96669.60
2022-10-19T16:27:40.380Z,96673.76
2022-10-19T16:30:07.507Z,96675.55
2022-10-19T16:32:34.207Z,96674.77
2022-10-19T16:35:00.409Z,96681.23
2022-10-19T16:37:26.982Z,96682.36
2022-10-19T16:39:53.224Z,96685.73
2022-10-19T16:42:19.820Z,96689.30
2022-10-19T16:44:45.993Z,96691.36
2022-10-19T16:47:13.155Z,96692.55
2022-10-19T16:49:39.341Z,96697.17
2022-10-19T16:52:05.479Z,96701.02
2022-10-19T16:54:32.111Z,96699.48
2022-10-19T16:56:58.306Z,96697.27
2022-10-19T16:59:24.622Z,96701.76
2022-10-19T17:01:50.975Z,96704.73
2022-10-19T17:04:17.296Z,96701.20
2022-10-19T17:06:43.505Z,96697.81
2022-10-19T17:11:56.483Z,96707.73
2022-10-19T17:14:22.696Z,96702.83
2022-10-19T17:16:48.901Z,96705.66
2022-10-19T17:19:15.194Z,96706.00
2022-10-19T17:21:41.474Z,96711.65
2022-10-19T17:24:13.835Z,96711.94
2022-10-19T17:26:45.034Z,96717.67
2022-10-19T17:29:11.811Z,96709.94
2022-10-19T17:31:39.821Z,96706.40
2022-10-19T17:34:07.671Z,96705.64
2022-10-19T17:36:37.938Z,96699.85
2022-10-19T17:39:08.694Z,96700.45
2022-10-19T17:41:35.125Z,96707.51
2022-10-19T17:44:04.316Z,96711.38
2022-10-19T17:46:33.143Z,96720.52
2022-10-19T17:48:59.834Z,96722.13
2022-10-19T17:51:28.746Z,96725.31
2022-10-19T17:53:57.459Z,96731.16
2022-10-19T17:56:24.744Z,96731.91
2022-10-19T17:58:51.396Z,96737.29
2022-10-19T18:01:20.202Z,96740.23
2022-10-19T18:03:47.564Z,96745.92
2022-10-19T18:06:16.376Z,96744.73
2022-10-19T18:08:46.634Z,96745.80
2022-10-19T18:11:17.155Z,96745.96
2022-10-19T18:13:43.462Z,96741.66
2022-10-19T18:16:13.564Z,96744.04
2022-10-19T18:18:42.510Z,96736.85
2022-10-19T18:21:14.137Z,96736.30
2022-10-19T18:23:40.417Z,96737.49
2022-10-19T18:26:10.461Z,96740.92
2022-10-19T18:28:37.200Z,96748.53
2022-10-19T18:31:06.515Z,96752.95
2022-10-19T18:33:33.223Z,96749.59
2022-10-19T18:35:59.662Z,96746.41
2022-10-19T18:38:25.994Z,96748.16
2022-10-19T18:40:52.652Z,96754.02
2022-10-19T18:43:18.896Z,96749.25
2022-10-19T18:45:53.882Z,96752.15
2022-10-19T18:48:20.736Z,96759.64
2022-10-19T18:50:47.408Z,96763.84
2022-10-19T18:53:13.955Z,96767.70
2022-10-19T18:55:41.136Z,96764.55
2022-10-19T18:58:08.273Z,96764.70
2022-10-19T19:00:34.637Z,96772.63
2022-10-19T19:03:01.034Z,96776.20
2022-10-19T19:05:27.404Z,96780.16
2022-10-19T19:07:55.276Z,96776.42
2022-10-19T19:10:21.543Z,96776.47
2022-10-19T19:12:49.904Z,96776.80
2022-10-19T19:15:16.939Z,96776.35
2022-10-19T19:17:43.271Z,96783.98
2022-10-19T19:20:09.751Z,96789.23
2022-10-19T19:22:36.583Z,96784.10
2022-10-19T19:25:03.714Z,96782.77
2022-10-19T19:27:31.925Z,96785.18
2022-10-19T19:30:00.426Z,96791.85
2022-10-19T19:32:26.955Z,96800.77
2022-10-19T19:34:54.884Z,96797.45
2022-10-19T19:37:21.446Z,96801.38
2022-10-19T19:39:47.792Z,96794.05
2022-10-19T19:42:14.117Z,96791.70
2022-10-19T19:44:40.300Z,96798.33
2022-10-19T19:47:07.671Z,96807.44
2022-10-19T19:49:33.891Z,96807.08
2022-10-19T19:52:00.232Z,96808.99
2022-10-19T19:54:26.496Z,96816.86
2022-10-19T19:56:53.197Z,96818.73
2022-10-19T19:59:19.837Z,96815.84
2022-10-19T20:01:46.284Z,96815.98
2022-10-19T20:04:12.603Z,96823.65
2022-10-19T20:06:39.999Z,96825.48
2022-10-19T20:09:07.987Z,96832.67
2022-10-19T20:11:36.200Z,96834.19
2022-10-19T20:14:06.075Z,96838.09
2022-10-19T20:16:32.862Z,96830.30
2022-10-19T20:19:10.193Z,96829.85
2022-10-19T20:21:37.435Z,96829.91
2022-10-19T20:24:04.192Z,96824.08
2022-10-19T20:26:30.837Z,96823.06
2022-10-19T20:28:57.459Z,96826.39
2022-10-19T20:31:24.667Z,96829.05
2022-10-19T20:33:51.070Z,96835.31
2022-10-19T20:36:21.058Z,96834.91
2022-10-19T20:38:50.483Z,96836.38
2022-10-19T20:41:18.353Z,96829.71
2022-10-19T20:43:45.519Z,96829.64
2022-10-19T20:46:17.085Z,96837.75
2022-10-19T20:48:44.729Z,96833.34
2022-10-19T20:51:15.930Z,96843.65
2022-10-19T20:53:45.621Z,96845.17
2022-10-19T20:56:15.619Z,96841.39
2022-10-19T20:58:43.096Z,96841.79
2022-10-19T21:01:13.969Z,96843.98
2022-10-19T21:03:46.297Z,96847.82
2022-10-19T21:06:12.541Z,96852.01
2022-10-19T21:08:39.106Z,96852.98
2022-10-19T21:11:24.453Z,96850.51
2022-10-19T21:13:54.133Z,96853.67
2022-10-19T21:16:22.447Z,96853.41
2022-10-19T21:18:49.906Z,96852.17
2022-10-19T21:21:21.346Z,96846.56
2022-10-19T21:23:50.688Z,96845.45
2022-10-19T21:26:20.355Z,96846.31
2022-10-19T21:28:48.800Z,96847.28
2022-10-19T21:31:17.123Z,96851.38
2022-10-19T21:33:44.379Z,96854.45
2022-10-19T21:36:12.302Z,96849.84
2022-10-19T21:38:39.004Z,96845.93
2022-10-19T21:41:08.085Z,96840.09
2022-10-19T21:43:34.730Z,96843.13
2022-10-19T21:46:05.099Z,96845.89
2022-10-19T21:48:32.560Z,96846.46
2022-10-19T21:50:59.709Z,96848.11
2022-10-19T21:53:28.605Z,96847.20
2022-10-19T21:55:58.763Z,96845.03
2022-10-19T21:58:25.104Z,96842.89
2022-10-19T22:00:51.548Z,96845.37
2022-10-19T22:03:18.328Z,96847.27
2022-10-19T22:05:51.914Z,96847.94
2022-10-19T22:08:18.350Z,96850.52
2022-10-19T22:10:44.701Z,96855.23
2022-10-19T22:13:11.426Z,96860.11
2022-10-19T22:15:39.400Z,96864.46
2022-10-19T22:18:06.641Z,96865.63
2022-10-19T22:20:35.543Z,96868.08
2022-10-19T22:23:02.658Z,96863.09
2022-10-19T22:25:31.053Z,96864.93
2022-10-19T22:27:57.598Z,96863.58
2022-10-19T22:30:23.990Z,96864.88
2022-10-19T22:32:50.482Z,96871.20
2022-10-19T22:35:16.912Z,96874.26
2022-10-19T22:37:43.340Z,96875.37
2022-10-19T22:40:10.037Z,96875.42
2022-10-19T22:43:27.670Z,96878.05
2022-10-19T22:46:13.545Z,96881.20
2022-10-19T22:48:41.536Z,96877.02
2022-10-19T22:51:07.903Z,96876.46
2022-10-19T22:53:34.200Z,96877.16
2022-10-19T22:56:00.939Z,96878.17
2022-10-19T22:58:27.205Z,96876.73
2022-10-19T23:01:03.418Z,96881.57
2022-10-19T23:03:30.109Z,96879.17
2022-10-19T23:05:56.742Z,96884.31
2022-10-19T23:08:23.475Z,96883.60
2022-10-19T23:10:49.715Z,96883.40
2022-10-19T23:13:16.463Z,96884.54
2022-10-19T23:15:44.046Z,96893.02
2022-10-19T23:18:11.182Z,96895.55
2022-10-19T23:20:37.612Z,96896.89
2022-10-19T23:23:04.054Z,96899.36
2022-10-19T23:28:01.707Z,96903.52
2022-10-19T23:30:28.208Z,96897.20
2022-10-19T23:32:54.600Z,96901.88
2022-10-19T23:35:20.885Z,96910.40
2022-10-19T23:37:47.179Z,96906.84
2022-10-19T23:40:13.759Z,96907.83
2022-10-19T23:42:40.105Z,96910.75
2022-10-19T23:45:06.866Z,96907.39
2022-10-19T23:47:33.399Z,96908.66
2022-10-19T23:50:00.103Z,96908.38
2022-10-19T23:52:26.433Z,96907.73
2022-10-19T23:54:52.639Z,96906.38
2022-10-19T23:57:19.434Z,96902.66
2022-10-19T23:59:45.915Z,96902.84
